Time;durP1;ratioP1;P1;durP2;ratioP2;P2;SDS_P1;SDS_P2;PMS_P1;PMS_P2;Temp;Humidity;BMP_temperature;BMP_pressure;BME280_temperature;BME280_humidity;BME280_pressure;Samples;Min_cycle;Max_cycle;Signal;HPM_P1;HPM_P2
2023/06/23 00:00:51;;;;;;;13.60;4.43;;;;;;;;;;5006839;28;20206;-74
2023/06/23 00:03:55;;;;;;;10.00;4.40;;;;;;;;;;5007354;28;20182;-75
2023/06/23 00:07:00;;;;;;;13.00;5.03;;;;;;;;;;4995349;28;20178;-75
2023/06/23 00:10:05;;;;;;;10.33;4.53;;;;;;;;;;4996281;28;20178;-75
2023/06/23 00:13:10;;;;;;;9.53;4.00;;;;;;;;;;5007001;28;20186;-75
2023/06/23 00:16:14;;;;;;;9.07;4.27;;;;;;;;;;4996428;28;20507;-75
2023/06/23 00:19:18;;;;;;;7.00;3.87;;;;;;;;;;4995927;28;20538;-74
2023/06/23 00:22:22;;;;;;;7.70;4.20;;;;;;;;;;4995973;28;20218;-75
2023/06/23 00:25:27;;;;;;;9.00;3.87;;;;;;;;;;4995980;28;20633;-74
2023/06/23 00:28:31;;;;;;;10.30;3.83;;;;;;;;;;4995445;28;20581;-74
2023/06/23 00:31:35;;;;;;;9.20;3.77;;;;;;;;;;5006503;28;20214;-75
2023/06/23 00:34:39;;;;;;;10.03;3.77;;;;;;;;;;5006529;28;20178;-75
2023/06/23 00:37:43;;;;;;;13.97;4.20;;;;;;;;;;4996023;28;20182;-74
2023/06/23 00:40:47;;;;;;;7.27;3.50;;;;;;;;;;5006299;28;20205;-75
2023/06/23 00:43:51;;;;;;;9.53;3.50;;;;;;;;;;4995131;28;20198;-74
2023/06/23 00:46:56;;;;;;;7.60;3.57;;;;;;;;;;4994852;28;20182;-74
2023/06/23 00:49:59;;;;;;;6.97;3.67;;;;;;;;;;4983651;28;20182;-74
2023/06/23 00:53:05;;;;;;;6.47;3.63;;;;;;;;;;4995768;28;20187;-74
2023/06/23 00:56:08;;;;;;;8.30;3.47;;;;;;;;;;4994675;28;20205;-75
2023/06/23 00:59:13;;;;;;;7.73;3.60;;;;;;;;;;5006391;28;20190;-74
2023/06/23 01:02:17;;;;;;;7.83;3.40;;;;;;;;;;4983317;28;20214;-74
2023/06/23 01:05:27;;;;;;;7.33;3.00;;;;;;;;;;4994461;28;20194;-74
2023/06/23 01:08:41;;;;;;;6.03;3.00;;;;;;;;;;4994643;28;20187;-74
2023/06/23 01:11:59;;;;;;;4.40;3.30;;;;;;;;;;5005651;28;20217;-75
2023/06/23 01:15:28;;;;;;;7.47;3.20;;;;;;;;;;5005808;28;20621;-75
2023/06/23 01:18:58;;;;;;;7.63;2.93;;;;;;;;;;5005727;28;20178;-74
2023/06/23 01:22:08;;;;;;;7.00;3.00;;;;;;;;;;4994366;28;20218;-75
2023/06/23 01:25:37;;;;;;;5.53;3.13;;;;;;;;;;4994665;28;20518;-75
2023/06/23 01:28:50;;;;;;;5.53;2.80;;;;;;;;;;4994303;28;20186;-74
2023/06/23 01:32:00;;;;;;;6.57;3.33;;;;;;;;;;4993389;28;20218;-74
2023/06/23 01:35:09;;;;;;;5.93;2.40;;;;;;;;;;5005477;28;20626;-75
2023/06/23 01:38:28;;;;;;;8.13;3.00;;;;;;;;;;4994561;28;20186;-74
2023/06/23 01:41:40;;;;;;;6.43;2.87;;;;;;;;;;4994629;28;20233;-74
2023/06/23 01:44:48;;;;;;;12.23;2.70;;;;;;;;;;4994291;28;20507;-74
2023/06/23 01:47:54;;;;;;;6.43;3.07;;;;;;;;;;5005196;28;20174;-74
2023/06/23 01:51:02;;;;;;;4.83;2.50;;;;;;;;;;5005150;28;20210;-74
2023/06/23 01:54:07;;;;;;;5.13;2.57;;;;;;;;;;5005103;28;20510;-75
2023/06/23 01:57:15;;;;;;;4.53;2.40;;;;;;;;;;5005028;28;20186;-75
2023/06/23 02:00:22;;;;;;;7.63;2.70;;;;;;;;;;5004941;28;20665;-74
2023/06/23 02:03:28;;;;;;;6.80;2.77;;;;;;;;;;4993677;28;20178;-74
2023/06/23 02:06:35;;;;;;;6.07;2.70;;;;;;;;;;4993615;28;20182;-74
2023/06/23 02:09:41;;;;;;;2.93;2.30;;;;;;;;;;5004568;28;20197;-74
2023/06/23 02:12:48;;;;;;;3.37;2.50;;;;;;;;;;4993986;28;20689;-74
2023/06/23 02:15:53;;;;;;;6.70;3.00;;;;;;;;;;5004493;28;20178;-74
2023/06/23 02:18:59;;;;;;;5.77;2.60;;;;;;;;;;4993447;28;20182;-74
2023/06/23 02:22:06;;;;;;;5.70;2.30;;;;;;;;;;4993886;28;20226;-74
2023/06/23 02:25:11;;;;;;;3.70;2.40;;;;;;;;;;4993324;28;20194;-74
2023/06/23 02:28:16;;;;;;;3.40;2.80;;;;;;;;;;4981884;28;20186;-73
2023/06/23 02:31:23;;;;;;;4.60;2.20;;;;;;;;;;4993232;28;20681;-73
2023/06/23 02:34:26;;;;;;;5.53;2.80;;;;;;;;;;5004208;28;20202;-73
2023/06/23 02:37:33;;;;;;;3.50;2.20;;;;;;;;;;4981777;28;20538;-73
2023/06/23 02:40:39;;;;;;;5.10;2.37;;;;;;;;;;4993568;28;20217;-73
2023/06/23 02:43:50;;;;;;;7.73;2.63;;;;;;;;;;4986074;28;20628;-73
2023/06/23 02:46:57;;;;;;;7.87;2.50;;;;;;;;;;5011280;28;20179;-73
2023/06/23 02:50:04;;;;;;;3.90;2.60;;;;;;;;;;5010808;28;20174;-73
2023/06/23 02:53:10;;;;;;;5.87;2.23;;;;;;;;;;5010939;28;20518;-73
2023/06/23 02:56:18;;;;;;;6.73;2.03;;;;;;;;;;5010519;28;20205;-73
2023/06/23 02:59:24;;;;;;;5.37;2.40;;;;;;;;;;5010939;28;20182;-73
2023/06/23 03:02:30;;;;;;;6.53;2.20;;;;;;;;;;4999994;28;20213;-73
2023/06/23 03:05:33;;;;;;;3.37;1.97;;;;;;;;;;4999417;28;20648;-73
2023/06/23 03:08:38;;;;;;;4.73;2.53;;;;;;;;;;4987999;28;20182;-73
2023/06/23 03:11:41;;;;;;;5.30;2.60;;;;;;;;;;4999055;28;20214;-73
2023/06/23 03:14:46;;;;;;;4.13;2.30;;;;;;;;;;4999959;28;20182;-73
2023/06/23 03:17:56;;;;;;;3.47;2.10;;;;;;;;;;4999675;28;20186;-73
2023/06/23 03:21:04;;;;;;;4.73;2.07;;;;;;;;;;4999990;28;20229;-73
2023/06/23 03:24:13;;;;;;;7.87;2.30;;;;;;;;;;5000207;28;20178;-73
2023/06/23 03:27:21;;;;;;;4.80;2.27;;;;;;;;;;4999445;28;20182;-72
2023/06/23 03:30:36;;;;;;;4.50;2.03;;;;;;;;;;4999742;28;20182;-73
2023/06/23 03:33:44;;;;;;;4.23;1.67;;;;;;;;;;5000190;28;20618;-73
2023/06/23 03:36:50;;;;;;;4.77;1.90;;;;;;;;;;5000152;28;20510;-73
2023/06/23 03:40:00;;;;;;;7.10;1.90;;;;;;;;;;4999328;28;20186;-73
2023/06/23 03:43:11;;;;;;;4.23;1.60;;;;;;;;;;4998936;28;20178;-73
2023/06/23 03:46:21;;;;;;;3.60;1.90;;;;;;;;;;4999219;28;20634;-73
2023/06/23 03:49:29;;;;;;;4.13;1.80;;;;;;;;;;4999751;28;20186;-73
2023/06/23 03:52:34;;;;;;;2.87;2.00;;;;;;;;;;4999716;28;20210;-73
2023/06/23 03:55:39;;;;;;;9.37;2.27;;;;;;;;;;4995759;28;20201;-73
2023/06/23 03:58:47;;;;;;;3.33;1.97;;;;;;;;;;4997161;28;20198;-73
2023/06/23 04:01:52;;;;;;;4.83;2.00;;;;;;;;;;4995798;28;20226;-73
2023/06/23 04:04:59;;;;;;;4.57;2.10;;;;;;;;;;4996474;28;20183;-73
2023/06/23 04:08:04;;;;;;;2.63;1.60;;;;;;;;;;4996570;28;20178;-73
2023/06/23 04:11:10;;;;;;;3.57;1.80;;;;;;;;;;4996522;28;20214;-73
2023/06/23 04:14:15;;;;;;;3.57;1.80;;;;;;;;;;4995484;28;20202;-73
2023/06/23 04:17:21;;;;;;;4.70;1.73;;;;;;;;;;4996146;28;20194;-73
2023/06/23 04:20:29;;;;;;;2.93;1.60;;;;;;;;;;4996504;28;20630;-73
2023/06/23 04:23:35;;;;;;;4.73;1.83;;;;;;;;;;4996077;28;20178;-73
2023/06/23 04:26:40;;;;;;;3.83;1.87;;;;;;;;;;4995414;28;20527;-73
2023/06/23 04:29:46;;;;;;;4.47;1.60;;;;;;;;;;4996225;28;20194;-73
2023/06/23 04:32:50;;;;;;;2.23;1.90;;;;;;;;;;4995903;28;20222;-73
2023/06/23 04:36:01;;;;;;;5.53;1.80;;;;;;;;;;4996092;28;20206;-73
2023/06/23 04:39:15;;;;;;;5.70;1.93;;;;;;;;;;5001023;28;20194;-73
2023/06/23 04:42:29;;;;;;;1.93;1.67;;;;;;;;;;4994986;28;20688;-72
2023/06/23 04:45:36;;;;;;;2.57;1.80;;;;;;;;;;4991534;28;20534;-73
2023/06/23 04:48:58;;;;;;;6.40;1.73;;;;;;;;;;4995586;28;20186;-73
2023/06/23 04:52:05;;;;;;;5.03;1.50;;;;;;;;;;4995595;28;20214;-73
2023/06/23 04:55:13;;;;;;;3.60;1.70;;;;;;;;;;4995778;28;20213;-74
2023/06/23 04:58:19;;;;;;;4.60;1.70;;;;;;;;;;4995401;28;20182;-73
2023/06/23 05:01:25;;;;;;;3.60;1.97;;;;;;;;;;4995188;28;20221;-73
2023/06/23 05:04:33;;;;;;;3.33;2.13;;;;;;;;;;4995296;28;20178;-73
2023/06/23 05:07:39;;;;;;;5.00;1.90;;;;;;;;;;4994376;28;20179;-73
2023/06/23 05:10:45;;;;;;;3.00;1.60;;;;;;;;;;4995038;28;20530;-73
2023/06/23 05:13:51;;;;;;;2.77;1.67;;;;;;;;;;4994256;28;20178;-73
2023/06/23 05:16:59;;;;;;;2.43;1.50;;;;;;;;;;4995286;28;20190;-73
2023/06/23 05:20:05;;;;;;;2.03;1.50;;;;;;;;;;4994934;28;20202;-74
2023/06/23 05:23:12;;;;;;;6.13;1.57;;;;;;;;;;4994052;28;20210;-74
2023/06/23 05:26:16;;;;;;;1.90;1.43;;;;;;;;;;4994777;28;20264;-73
2023/06/23 05:29:23;;;;;;;2.43;1.60;;;;;;;;;;4995110;28;20526;-72
2023/06/23 05:32:31;;;;;;;2.87;1.30;;;;;;;;;;4994005;28;20693;-73
2023/06/23 05:35:37;;;;;;;3.63;1.80;;;;;;;;;;4994710;28;20190;-73
2023/06/23 05:38:43;;;;;;;2.17;1.90;;;;;;;;;;4995171;28;20178;-73
2023/06/23 05:41:47;;;;;;;2.57;2.00;;;;;;;;;;4982506;28;20217;-73
2023/06/23 05:44:51;;;;;;;2.53;2.13;;;;;;;;;;4994486;28;20542;-73
2023/06/23 05:48:02;;;;;;;2.40;2.20;;;;;;;;;;4994496;28;20187;-73
2023/06/23 05:51:10;;;;;;;3.00;2.30;;;;;;;;;;4982493;28;20573;-72
2023/06/23 05:54:19;;;;;;;3.17;2.87;;;;;;;;;;4994338;28;20637;-73
2023/06/23 05:57:31;;;;;;;5.50;3.00;;;;;;;;;;4993515;28;20170;-73
2023/06/23 06:00:42;;;;;;;3.70;3.00;;;;;;;;;;4994360;28;20186;-72
2023/06/23 06:03:51;;;;;;;4.53;3.37;;;;;;;;;;4994147;28;20179;-73
2023/06/23 06:06:58;;;;;;;3.73;3.20;;;;;;;;;;4994356;28;20197;-73
2023/06/23 06:10:04;;;;;;;5.47;3.60;;;;;;;;;;4993296;28;20530;-73
2023/06/23 06:13:10;;;;;;;5.23;3.93;;;;;;;;;;4993885;28;20178;-73
2023/06/23 06:16:15;;;;;;;4.47;3.80;;;;;;;;;;4993294;28;20182;-73
2023/06/23 06:19:22;;;;;;;6.07;4.03;;;;;;;;;;4993373;28;20174;-73
2023/06/23 06:22:27;;;;;;;5.13;3.60;;;;;;;;;;4993032;28;20226;-73
2023/06/23 06:25:33;;;;;;;3.50;3.20;;;;;;;;;;4993345;28;20198;-73
2023/06/23 06:28:39;;;;;;;6.43;3.60;;;;;;;;;;4993073;28;20648;-73
2023/06/23 06:31:45;;;;;;;5.33;3.90;;;;;;;;;;4993693;28;20213;-73
2023/06/23 06:34:51;;;;;;;4.70;4.20;;;;;;;;;;4992778;28;20202;-73
2023/06/23 06:37:56;;;;;;;5.20;4.43;;;;;;;;;;4992669;28;20202;-73
2023/06/23 06:41:04;;;;;;;4.93;4.40;;;;;;;;;;4993631;28;20209;-73
2023/06/23 06:44:08;;;;;;;4.27;3.87;;;;;;;;;;4993560;28;20195;-73
2023/06/23 06:47:14;;;;;;;4.93;4.40;;;;;;;;;;4992867;28;20182;-73
2023/06/23 06:50:19;;;;;;;5.37;4.50;;;;;;;;;;4992837;28;20197;-73
2023/06/23 06:53:24;;;;;;;6.80;4.70;;;;;;;;;;4993569;28;20546;-73
2023/06/23 06:56:29;;;;;;;6.10;4.90;;;;;;;;;;4992661;28;20201;-73
2023/06/23 06:59:33;;;;;;;4.47;4.07;;;;;;;;;;4993844;28;20178;-73
2023/06/23 07:02:39;;;;;;;5.60;4.80;;;;;;;;;;4993403;28;20222;-73
2023/06/23 07:05:42;;;;;;;4.73;4.23;;;;;;;;;;4981579;28;20182;-73
2023/06/23 07:08:46;;;;;;;5.30;4.60;;;;;;;;;;4992648;28;20186;-73
2023/06/23 07:11:56;;;;;;;9.60;6.00;;;;;;;;;;4992679;28;20210;-73
2023/06/23 07:15:01;;;;;;;6.93;6.13;;;;;;;;;;4993155;28;20202;-73
2023/06/23 07:18:05;;;;;;;6.70;5.90;;;;;;;;;;4992568;28;20182;-73
2023/06/23 07:21:10;;;;;;;6.30;5.70;;;;;;;;;;4993277;28;20218;-73
2023/06/23 07:24:14;;;;;;;7.00;6.23;;;;;;;;;;4992479;28;20183;-72
2023/06/23 07:27:18;;;;;;;7.87;6.90;;;;;;;;;;4992431;28;20187;-72
2023/06/23 07:30:22;;;;;;;7.03;6.10;;;;;;;;;;4994986;28;20182;-73
2023/06/23 07:33:26;;;;;;;6.83;5.83;;;;;;;;;;4996199;28;20178;-73
2023/06/23 07:36:31;;;;;;;8.33;6.83;;;;;;;;;;4996164;28;20186;-73
2023/06/23 07:39:36;;;;;;;6.73;5.50;;;;;;;;;;4996986;28;20526;-73
2023/06/23 07:42:43;;;;;;;9.83;7.77;;;;;;;;;;5010826;23;20229;-76
2023/06/23 07:45:47;;;;;;;9.13;7.40;;;;;;;;;;4995652;28;20261;-73
2023/06/23 07:48:51;;;;;;;8.93;7.73;;;;;;;;;;5007274;28;20179;-73
2023/06/23 07:52:04;;;;;;;9.30;8.00;;;;;;;;;;4996595;28;20688;-73
2023/06/23 07:55:08;;;;;;;8.80;7.70;;;;;;;;;;4996136;28;20179;-73
2023/06/23 07:58:12;;;;;;;9.30;7.63;;;;;;;;;;4996597;28;20178;-73
2023/06/23 08:01:17;;;;;;;8.40;7.40;;;;;;;;;;4996773;28;20685;-73
2023/06/23 08:04:22;;;;;;;10.10;8.37;;;;;;;;;;4995597;28;20194;-73
2023/06/23 08:07:26;;;;;;;10.47;8.00;;;;;;;;;;4996319;28;20202;-73
2023/06/23 08:10:30;;;;;;;12.03;7.50;;;;;;;;;;4996586;28;20194;-73
2023/06/23 08:13:37;;;;;;;10.53;7.80;;;;;;;;;;4984666;28;20174;-74
2023/06/23 08:16:42;;;;;;;10.23;8.20;;;;;;;;;;4995718;28;20182;-73
2023/06/23 08:19:46;;;;;;;9.17;8.10;;;;;;;;;;4996506;28;20179;-73
2023/06/23 08:22:50;;;;;;;12.03;8.50;;;;;;;;;;4995977;28;20233;-73
2023/06/23 08:25:54;;;;;;;10.30;8.17;;;;;;;;;;4996310;28;20198;-73
2023/06/23 08:28:58;;;;;;;9.10;8.13;;;;;;;;;;4995259;28;20186;-73
2023/06/23 08:32:03;;;;;;;14.13;8.67;;;;;;;;;;4996018;28;20217;-74
2023/06/23 08:35:07;;;;;;;10.23;8.17;;;;;;;;;;4995930;28;20182;-73
2023/06/23 08:38:14;;;;;;;11.00;8.40;;;;;;;;;;4995515;28;20178;-73
2023/06/23 08:41:20;;;;;;;10.43;9.33;;;;;;;;;;4994711;28;20692;-73
2023/06/23 08:44:26;;;;;;;10.43;8.37;;;;;;;;;;4972450;28;20206;-74
2023/06/23 08:47:31;;;;;;;9.60;8.60;;;;;;;;;;4995054;28;20519;-73
2023/06/23 08:50:36;;;;;;;10.73;8.47;;;;;;;;;;4995661;28;20178;-73
2023/06/23 08:53:41;;;;;;;10.80;9.10;;;;;;;;;;4995146;28;20253;-74
2023/06/23 08:56:46;;;;;;;9.83;8.83;;;;;;;;;;4994734;28;20186;-74
2023/06/23 08:59:50;;;;;;;14.13;9.20;;;;;;;;;;4995571;28;20637;-74
2023/06/23 09:02:55;;;;;;;11.17;9.97;;;;;;;;;;4994889;28;20225;-74
2023/06/23 09:06:00;;;;;;;11.23;9.33;;;;;;;;;;4995216;28;20178;-74
2023/06/23 09:09:04;;;;;;;13.33;9.57;;;;;;;;;;4995472;28;20178;-74
2023/06/23 09:12:10;;;;;;;13.83;10.63;;;;;;;;;;4995190;28;20222;-73
2023/06/23 09:15:14;;;;;;;13.87;10.57;;;;;;;;;;4994210;28;20209;-74
2023/06/23 09:18:19;;;;;;;10.43;9.23;;;;;;;;;;4994964;28;20201;-74
2023/06/23 09:21:23;;;;;;;12.27;10.00;;;;;;;;;;4995140;28;20557;-73
2023/06/23 09:24:46;;;;;;;11.33;8.13;;;;;;;;;;4994305;28;20541;-73
2023/06/23 09:27:50;;;;;;;12.47;9.63;;;;;;;;;;4994839;28;20178;-73
2023/06/23 09:30:59;;;;;;;11.47;9.30;;;;;;;;;;4994619;28;20538;-73
2023/06/23 09:34:04;;;;;;;11.47;9.57;;;;;;;;;;4993861;28;20182;-74
2023/06/23 09:37:09;;;;;;;11.50;9.90;;;;;;;;;;4993946;28;20178;-74
2023/06/23 09:40:13;;;;;;;11.03;9.60;;;;;;;;;;4994677;28;20182;-73
2023/06/23 09:43:19;;;;;;;11.30;9.73;;;;;;;;;;4994422;28;20217;-74
2023/06/23 09:46:26;;;;;;;12.67;8.80;;;;;;;;;;4994586;28;20522;-73
2023/06/23 09:49:39;;;;;;;9.73;8.67;;;;;;;;;;4993853;28;20550;-73
2023/06/23 09:52:43;;;;;;;11.03;9.57;;;;;;;;;;4993785;28;20217;-73
2023/06/23 09:55:47;;;;;;;11.50;9.83;;;;;;;;;;4993869;28;20182;-73
2023/06/23 09:58:51;;;;;;;11.67;10.20;;;;;;;;;;4994347;28;20182;-73
2023/06/23 10:01:55;;;;;;;12.30;9.47;;;;;;;;;;4993411;28;20225;-73
2023/06/23 10:05:01;;;;;;;9.77;8.70;;;;;;;;;;4994273;28;20194;-73
2023/06/23 10:08:12;;;;;;;9.70;8.70;;;;;;;;;;4994512;28;20189;-73
2023/06/23 10:11:29;;;;;;;11.03;8.53;;;;;;;;;;4993686;28;20562;-73
2023/06/23 10:14:33;;;;;;;10.50;9.00;;;;;;;;;;4994576;28;20180;-73
2023/06/23 10:17:37;;;;;;;9.67;8.50;;;;;;;;;;4993531;28;20634;-73
2023/06/23 10:20:41;;;;;;;9.90;8.50;;;;;;;;;;4994249;28;20194;-73
2023/06/23 10:23:48;;;;;;;10.17;7.83;;;;;;;;;;4971250;28;20210;-73
2023/06/23 10:26:56;;;;;;;12.63;9.20;;;;;;;;;;4982113;28;20202;-73
2023/06/23 10:30:02;;;;;;;10.23;9.13;;;;;;;;;;4994186;28;20532;-73
2023/06/23 10:33:17;;;;;;;9.83;8.33;;;;;;;;;;4993364;28;20515;-73
2023/06/23 10:36:22;;;;;;;9.10;7.83;;;;;;;;;;4981803;28;20194;-73
2023/06/23 10:39:31;;;;;;;10.63;8.33;;;;;;;;;;4994042;28;20626;-73
2023/06/23 10:42:36;;;;;;;10.67;7.37;;;;;;;;;;4993684;28;20222;-73
2023/06/23 10:45:40;;;;;;;8.77;7.23;;;;;;;;;;4993723;28;20178;-73
2023/06/23 10:48:45;;;;;;;10.30;7.90;;;;;;;;;;4993927;28;20182;-73
2023/06/23 10:51:49;;;;;;;10.67;7.53;;;;;;;;;;4993871;28;20676;-73
2023/06/23 10:54:53;;;;;;;8.47;6.93;;;;;;;;;;4993124;28;20522;-73
2023/06/23 10:58:16;;;;;;;8.10;6.40;;;;;;;;;;4993701;28;20186;-73
2023/06/23 11:01:20;;;;;;;8.77;7.07;;;;;;;;;;4993727;28;20218;-73
2023/06/23 11:04:26;;;;;;;10.80;7.20;;;;;;;;;;4995528;28;20219;-73
2023/06/23 11:07:31;;;;;;;8.83;6.37;;;;;;;;;;4997471;28;20200;-73
2023/06/23 11:10:46;;;;;;;8.47;7.03;;;;;;;;;;4996563;28;20180;-73
2023/06/23 11:13:51;;;;;;;10.27;6.57;;;;;;;;;;4997641;28;20176;-73
2023/06/23 11:16:57;;;;;;;10.63;6.57;;;;;;;;;;4997479;28;20539;-73
2023/06/23 11:20:01;;;;;;;7.27;6.47;;;;;;;;;;4996588;28;20204;-72
2023/06/23 11:23:11;;;;;;;7.07;6.37;;;;;;;;;;4996201;28;20224;-73
2023/06/23 11:26:29;;;;;;;8.67;6.07;;;;;;;;;;4997271;28;20184;-73
2023/06/23 11:29:33;;;;;;;7.13;5.53;;;;;;;;;;4997056;28;20184;-73
2023/06/23 11:32:38;;;;;;;7.63;6.10;;;;;;;;;;4997164;28;20227;-73
2023/06/23 11:35:42;;;;;;;7.23;6.03;;;;;;;;;;4996558;28;20202;-73
2023/06/23 11:38:46;;;;;;;6.63;5.97;;;;;;;;;;4996779;28;20187;-72
2023/06/23 11:41:50;;;;;;;6.90;5.70;;;;;;;;;;4996063;28;20677;-73
2023/06/23 11:44:58;;;;;;;8.33;6.20;;;;;;;;;;4995757;28;20227;-73
2023/06/23 11:48:02;;;;;;;10.50;5.90;;;;;;;;;;4996027;28;20197;-73
2023/06/23 11:51:09;;;;;;;8.60;6.57;;;;;;;;;;4995710;28;20245;-72
2023/06/23 11:54:13;;;;;;;6.80;6.10;;;;;;;;;;4996072;28;20182;-72
2023/06/23 11:57:19;;;;;;;10.00;5.60;;;;;;;;;;4996620;28;20179;-72
2023/06/23 12:00:24;;;;;;;7.00;6.23;;;;;;;;;;4996727;28;20182;-72
2023/06/23 12:03:30;;;;;;;9.93;6.13;;;;;;;;;;4996396;28;20205;-72
2023/06/23 12:06:37;;;;;;;7.80;5.90;;;;;;;;;;4996543;28;20179;-73
2023/06/23 12:09:42;;;;;;;9.67;6.23;;;;;;;;;;4996520;28;20519;-72
2023/06/23 12:12:48;;;;;;;8.27;6.30;;;;;;;;;;4996292;28;20216;-73
2023/06/23 12:15:53;;;;;;;8.27;6.10;;;;;;;;;;4995708;28;20185;-73
2023/06/23 12:18:59;;;;;;;10.13;6.13;;;;;;;;;;4996410;28;20199;-73
2023/06/23 12:22:03;;;;;;;7.67;6.03;;;;;;;;;;4996061;28;20228;-73
2023/06/23 12:25:08;;;;;;;7.10;6.33;;;;;;;;;;4995106;28;20207;-73
2023/06/23 12:28:17;;;;;;;8.63;6.40;;;;;;;;;;4995168;28;20184;-72
2023/06/23 12:31:26;;;;;;;8.70;6.37;;;;;;;;;;4995021;28;20691;-72
2023/06/23 12:34:41;;;;;;;6.43;5.27;;;;;;;;;;4994998;28;20632;-73
2023/06/23 12:37:47;;;;;;;6.53;5.50;;;;;;;;;;4995708;28;20184;-73
2023/06/23 12:40:52;;;;;;;6.37;5.10;;;;;;;;;;4995181;28;20185;-73
2023/06/23 12:44:03;;;;;;;5.87;4.83;;;;;;;;;;4995579;28;20227;-72
2023/06/23 12:47:07;;;;;;;10.80;5.53;;;;;;;;;;4995802;28;20188;-72
2023/06/23 12:50:11;;;;;;;6.43;4.97;;;;;;;;;;4994936;28;20536;-73
2023/06/23 12:53:15;;;;;;;7.80;5.13;;;;;;;;;;4983817;28;20528;-72
2023/06/23 12:56:20;;;;;;;8.90;5.17;;;;;;;;;;4995556;28;20186;-72
2023/06/23 12:59:25;;;;;;;9.17;5.03;;;;;;;;;;4995387;28;20187;-72
2023/06/23 13:02:29;;;;;;;9.13;5.47;;;;;;;;;;4995523;28;20219;-72
2023/06/23 13:05:33;;;;;;;5.97;4.90;;;;;;;;;;4994366;28;20183;-72
2023/06/23 13:08:37;;;;;;;5.90;4.83;;;;;;;;;;4995508;28;20507;-72
2023/06/23 13:11:42;;;;;;;7.83;5.67;;;;;;;;;;4994383;28;20214;-73
2023/06/23 13:14:46;;;;;;;8.63;5.47;;;;;;;;;;4995267;28;20180;-72
2023/06/23 13:17:50;;;;;;;5.20;4.70;;;;;;;;;;4995293;28;20184;-72
2023/06/23 13:20:54;;;;;;;7.30;5.20;;;;;;;;;;4994928;28;20186;-72
2023/06/23 13:23:58;;;;;;;5.80;5.20;;;;;;;;;;4995001;28;20216;-72
2023/06/23 13:27:07;;;;;;;6.03;5.30;;;;;;;;;;4993555;28;20186;-73
2023/06/23 13:30:12;;;;;;;6.27;5.00;;;;;;;;;;4982741;28;20202;-73
2023/06/23 13:33:19;;;;;;;5.80;4.60;;;;;;;;;;4994301;28;20186;-73
2023/06/23 13:36:23;;;;;;;5.73;4.90;;;;;;;;;;4994627;28;20183;-72
2023/06/23 13:39:27;;;;;;;6.47;4.80;;;;;;;;;;4995106;28;20175;-73
2023/06/23 13:42:31;;;;;;;7.03;4.90;;;;;;;;;;4993665;28;20221;-73
2023/06/23 13:45:35;;;;;;;6.03;4.83;;;;;;;;;;5019858;22;20228;-73
2023/06/23 13:48:40;;;;;;;4.63;4.20;;;;;;;;;;5014319;28;20189;-73
2023/06/23 13:51:44;;;;;;;4.87;4.37;;;;;;;;;;5014005;28;20221;-74
2023/06/23 13:54:48;;;;;;;7.70;5.20;;;;;;;;;;5013692;28;20173;-74
2023/06/23 13:57:52;;;;;;;7.03;4.80;;;;;;;;;;5013100;28;20197;-74
2023/06/23 14:00:56;;;;;;;6.00;5.13;;;;;;;;;;5013157;28;20181;-74
2023/06/23 14:04:00;;;;;;;10.60;4.60;;;;;;;;;;5013771;28;20205;-73
2023/06/23 14:07:05;;;;;;;7.13;4.80;;;;;;;;;;5013740;28;20613;-73
2023/06/23 14:10:09;;;;;;;8.33;5.30;;;;;;;;;;5012811;28;20202;-73
2023/06/23 14:13:14;;;;;;;5.43;4.60;;;;;;;;;;5013609;28;20198;-73
2023/06/23 14:16:18;;;;;;;8.27;4.53;;;;;;;;;;5013533;28;20198;-73
2023/06/23 14:19:22;;;;;;;7.30;5.50;;;;;;;;;;5013510;28;20227;-73
2023/06/23 14:22:26;;;;;;;6.57;4.80;;;;;;;;;;5013807;28;20217;-73
2023/06/23 14:25:30;;;;;;;6.37;4.30;;;;;;;;;;5012860;28;20202;-74
2023/06/23 14:28:35;;;;;;;6.27;4.90;;;;;;;;;;5012885;28;20186;-74
2023/06/23 14:31:39;;;;;;;7.70;4.80;;;;;;;;;;5013119;28;20222;-74
2023/06/23 14:34:43;;;;;;;8.17;5.17;;;;;;;;;;5012579;28;20178;-74
2023/06/23 14:37:47;;;;;;;6.93;4.93;;;;;;;;;;5013544;28;20177;-73
2023/06/23 14:40:52;;;;;;;6.63;4.97;;;;;;;;;;5013687;28;20177;-73
2023/06/23 14:43:56;;;;;;;5.87;4.83;;;;;;;;;;5013462;28;20209;-74
2023/06/23 14:47:00;;;;;;;8.30;4.97;;;;;;;;;;5013750;28;20181;-74
2023/06/23 14:50:06;;;;;;;10.40;5.17;;;;;;;;;;5001501;28;20201;-74
2023/06/23 14:53:10;;;;;;;5.73;4.97;;;;;;;;;;5012294;28;20174;-74
2023/06/23 14:56:13;;;;;;;6.37;4.67;;;;;;;;;;5012882;28;20510;-74
2023/06/23 14:59:18;;;;;;;6.73;4.93;;;;;;;;;;5013221;28;20177;-74
2023/06/23 15:02:22;;;;;;;5.93;4.80;;;;;;;;;;5013317;28;20209;-73
2023/06/23 15:05:26;;;;;;;6.00;4.60;;;;;;;;;;5013002;28;20197;-73
2023/06/23 15:08:31;;;;;;;6.17;4.67;;;;;;;;;;5012834;28;20182;-73
2023/06/23 15:11:35;;;;;;;6.20;4.40;;;;;;;;;;5012858;28;20217;-72
2023/06/23 15:14:39;;;;;;;5.57;4.33;;;;;;;;;;5012392;28;20173;-73
2023/06/23 15:17:44;;;;;;;7.10;4.33;;;;;;;;;;5012201;28;20186;-73
2023/06/23 15:20:48;;;;;;;6.53;4.40;;;;;;;;;;5012870;28;20181;-72
2023/06/23 15:23:52;;;;;;;4.77;4.00;;;;;;;;;;5012783;28;20177;-72
2023/06/23 15:26:57;;;;;;;6.60;4.10;;;;;;;;;;5012914;28;20189;-72
2023/06/23 15:30:01;;;;;;;7.93;4.07;;;;;;;;;;5011973;28;20182;-73
2023/06/23 15:33:05;;;;;;;4.93;3.90;;;;;;;;;;5013187;28;20520;-73
2023/06/23 15:36:09;;;;;;;6.80;3.87;;;;;;;;;;5012809;28;20536;-73
2023/06/23 15:39:13;;;;;;;9.23;4.73;;;;;;;;;;5012231;28;20185;-73
2023/06/23 15:42:17;;;;;;;6.10;3.60;;;;;;;;;;5000867;28;20217;-73
2023/06/23 15:45:22;;;;;;;11.00;3.70;;;;;;;;;;5012512;28;20221;-73
2023/06/23 15:48:26;;;;;;;7.87;4.53;;;;;;;;;;5012930;28;20185;-73
2023/06/23 15:51:30;;;;;;;5.90;3.63;;;;;;;;;;5014364;28;20217;-73
2023/06/23 15:54:34;;;;;;;7.40;3.13;;;;;;;;;;5016352;28;20525;-73
2023/06/23 15:57:38;;;;;;;5.73;3.63;;;;;;;;;;5016093;28;20186;-72
2023/06/23 16:00:42;;;;;;;5.87;3.67;;;;;;;;;;5016299;28;20212;-73
2023/06/23 16:03:46;;;;;;;5.93;3.53;;;;;;;;;;5016271;28;20185;-73
2023/06/23 16:06:51;;;;;;;5.30;3.27;;;;;;;;;;5015902;28;20189;-72
2023/06/23 16:09:57;;;;;;;5.93;3.20;;;;;;;;;;5015898;28;20197;-73
2023/06/23 16:13:01;;;;;;;4.27;3.33;;;;;;;;;;5015708;28;20213;-73
2023/06/23 16:16:06;;;;;;;3.37;3.07;;;;;;;;;;5016028;28;20543;-73
2023/06/23 16:19:10;;;;;;;5.47;3.00;;;;;;;;;;5016542;28;20617;-73
2023/06/23 16:22:17;;;;;;;4.17;3.13;;;;;;;;;;5014790;28;20224;-73
2023/06/23 16:25:21;;;;;;;3.17;2.50;;;;;;;;;;5014667;28;20221;-72
2023/06/23 16:28:25;;;;;;;4.03;2.87;;;;;;;;;;5004008;28;20182;-73
2023/06/23 16:31:30;;;;;;;4.00;2.23;;;;;;;;;;5015819;28;20549;-73
2023/06/23 16:34:34;;;;;;;4.83;2.40;;;;;;;;;;5014879;28;20177;-72
2023/06/23 16:37:38;;;;;;;3.10;2.03;;;;;;;;;;5014733;28;20182;-73
2023/06/23 16:40:44;;;;;;;2.83;2.00;;;;;;;;;;5015493;28;20173;-74
2023/06/23 16:43:48;;;;;;;3.60;2.10;;;;;;;;;;5015542;28;20201;-72
2023/06/23 16:46:52;;;;;;;2.93;1.80;;;;;;;;;;5015501;28;20173;-73
2023/06/23 16:49:56;;;;;;;2.30;1.90;;;;;;;;;;5015454;28;20181;-73
2023/06/23 16:53:00;;;;;;;2.47;1.80;;;;;;;;;;5014517;28;20561;-73
2023/06/23 16:56:06;;;;;;;2.50;1.80;;;;;;;;;;5014956;28;20193;-73
2023/06/23 16:59:10;;;;;;;4.40;1.93;;;;;;;;;;5015297;28;20193;-73
2023/06/23 17:02:14;;;;;;;2.83;2.20;;;;;;;;;;5014899;28;20209;-73
2023/06/23 17:05:18;;;;;;;2.53;1.73;;;;;;;;;;5014311;28;20205;-72
2023/06/23 17:08:23;;;;;;;2.40;2.03;;;;;;;;;;5015101;28;20185;-73
2023/06/23 17:11:27;;;;;;;2.10;1.87;;;;;;;;;;5015015;28;20209;-73
2023/06/23 17:14:31;;;;;;;2.30;1.80;;;;;;;;;;5014325;28;20178;-73
2023/06/23 17:17:35;;;;;;;2.80;1.90;;;;;;;;;;5002862;28;20190;-73
2023/06/23 17:20:39;;;;;;;2.83;2.07;;;;;;;;;;5014485;28;20667;-72
2023/06/23 17:23:44;;;;;;;2.73;2.10;;;;;;;;;;5014657;28;20653;-72
2023/06/23 17:26:48;;;;;;;2.10;1.70;;;;;;;;;;5014448;28;20206;-72
2023/06/23 17:29:54;;;;;;;2.47;1.70;;;;;;;;;;5014708;28;20182;-72
2023/06/23 17:32:58;;;;;;;2.23;1.80;;;;;;;;;;5014741;28;20209;-73
2023/06/23 17:36:03;;;;;;;2.80;1.50;;;;;;;;;;5014310;28;20194;-73
2023/06/23 17:39:06;;;;;;;2.20;1.67;;;;;;;;;;5013523;28;20181;-73
2023/06/23 17:42:11;;;;;;;6.77;1.90;;;;;;;;;;5014233;28;20221;-73
2023/06/23 17:45:15;;;;;;;2.50;1.70;;;;;;;;;;5014366;28;20561;-72
2023/06/23 17:48:19;;;;;;;4.00;1.70;;;;;;;;;;5002449;28;20185;-73
2023/06/23 17:51:23;;;;;;;3.70;2.27;;;;;;;;;;5013292;28;20220;-72
2023/06/23 17:54:30;;;;;;;2.50;2.00;;;;;;;;;;5014235;28;20181;-73
2023/06/23 17:57:34;;;;;;;3.43;1.93;;;;;;;;;;5013182;28;20181;-74
2023/06/23 18:00:38;;;;;;;3.13;1.90;;;;;;;;;;5013982;28;20193;-73
2023/06/23 18:03:42;;;;;;;2.23;1.87;;;;;;;;;;5013913;28;20292;-73
2023/06/23 18:06:46;;;;;;;5.87;2.03;;;;;;;;;;5014077;28;20202;-73
2023/06/23 18:09:50;;;;;;;2.83;2.20;;;;;;;;;;5014061;28;20181;-73
2023/06/23 18:12:54;;;;;;;5.77;2.10;;;;;;;;;;5013507;28;20217;-73
2023/06/23 18:15:58;;;;;;;3.00;2.00;;;;;;;;;;5013501;28;20177;-72
2023/06/23 18:19:03;;;;;;;2.53;2.23;;;;;;;;;;5013804;28;20181;-73
2023/06/23 18:22:07;;;;;;;5.57;2.27;;;;;;;;;;5012720;28;20208;-72
2023/06/23 18:25:11;;;;;;;4.43;2.33;;;;;;;;;;5013805;28;20205;-72
2023/06/23 18:28:15;;;;;;;3.17;2.10;;;;;;;;;;5012590;28;20185;-73
2023/06/23 18:31:19;;;;;;;4.13;2.10;;;;;;;;;;5012462;28;20216;-73